Time;durP1;ratioP1;P1;durP2;ratioP2;P2;SDS_P1;SDS_P2;PMS_P1;PMS_P2;Temp;Humidity;BMP_temperature;BMP_pressure;BME280_temperature;BME280_humidity;BME280_pressure;Samples;Min_cycle;Max_cycle;Signal;HPM_P1;HPM_P2
2021/09/22 04:01:15;;;;;;;21.67;7.60;;;9.30;96.30;;;;;;5568326;23;22612;-82
2021/09/22 04:03:40;;;;;;;17.03;7.13;;;9.30;96.30;;;;;;4973909;28;20469;-82
2021/09/22 04:06:06;;;;;;;17.13;8.43;;;9.30;96.30;;;;;;4973146;28;20417;-83
2021/09/22 04:08:31;;;;;;;13.30;7.20;;;9.30;96.30;;;;;;4989257;28;20542;-82
2021/09/22 04:10:57;;;;;;;19.30;6.83;;;9.30;96.30;;;;;;4965848;28;20282;-82
2021/09/22 04:13:22;;;;;;;15.17;7.27;;;9.30;96.30;;;;;;4954930;28;20175;-82
2021/09/22 04:15:48;;;;;;;17.20;7.03;;;9.30;96.30;;;;;;4958954;29;20314;-82
2021/09/22 04:18:13;;;;;;;14.47;6.60;;;9.30;96.30;;;;;;4957641;28;20266;-82
2021/09/22 04:28:25;;;;;;;15.80;7.40;;;9.40;96.30;;;;;;5104577;23;20484;-82
2021/09/22 04:30:51;;;;;;;14.57;6.70;;;9.40;96.30;;;;;;4987731;28;20785;-82
2021/09/22 04:33:16;;;;;;;17.83;7.43;;;9.40;96.30;;;;;;4988762;28;20187;-82
2021/09/22 04:35:42;;;;;;;14.90;7.73;;;9.40;96.30;;;;;;4989023;28;20181;-82
2021/09/22 04:38:08;;;;;;;11.77;7.70;;;9.40;96.30;;;;;;4989125;28;20186;-82
2021/09/22 04:40:35;;;;;;;20.10;9.37;;;9.40;96.30;;;;;;4988976;28;20206;-82
2021/09/22 04:43:01;;;;;;;13.17;7.07;;;9.40;96.30;;;;;;4988604;28;20452;-82
2021/09/22 04:45:27;;;;;;;20.53;8.70;;;9.40;96.30;;;;;;4973897;28;20421;-82
2021/09/22 04:47:54;;;;;;;17.97;8.50;;;9.40;96.30;;;;;;4974229;28;20432;-83
2021/09/22 04:50:20;;;;;;;18.67;7.97;;;9.40;96.30;;;;;;4988801;28;20417;-82
2021/09/22 04:52:46;;;;;;;18.83;8.30;;;9.40;96.30;;;;;;4973498;28;20420;-82
2021/09/22 04:55:12;;;;;;;13.73;8.30;;;9.40;96.30;;;;;;4973613;28;20919;-82
2021/09/22 04:57:39;;;;;;;10.20;6.70;;;9.50;96.30;;;;;;4988610;28;20186;-82
2021/09/22 05:00:06;;;;;;;17.50;7.80;;;9.40;96.30;;;;;;4988433;28;20429;-83
2021/09/22 05:02:32;;;;;;;15.20;7.70;;;9.40;96.30;;;;;;4973244;28;20457;-82
2021/09/22 05:04:58;;;;;;;19.67;8.63;;;9.40;96.30;;;;;;4973721;28;20957;-82
2021/09/22 05:07:23;;;;;;;14.67;7.53;;;9.40;96.30;;;;;;4973912;28;20178;-82
2021/09/22 05:09:49;;;;;;;20.90;8.27;;;9.40;96.30;;;;;;4988400;28;20178;-82
2021/09/22 05:12:14;;;;;;;19.97;7.27;;;9.40;96.30;;;;;;4972675;28;20202;-79
2021/09/22 05:14:40;;;;;;;16.33;7.97;;;9.40;96.30;;;;;;4962353;28;20650;-78
2021/09/22 05:17:05;;;;;;;21.07;7.77;;;9.40;96.30;;;;;;4954144;28;20182;-79
2021/09/22 05:19:31;;;;;;;22.37;8.57;;;9.40;96.30;;;;;;4954033;28;20175;-78
2021/09/22 05:21:56;;;;;;;21.20;7.23;;;9.40;96.30;;;;;;4952232;28;20332;-79
2021/09/22 05:24:22;;;;;;;16.13;7.30;;;9.50;96.30;;;;;;4971410;28;20198;-81
2021/09/22 05:26:48;;;;;;;22.73;7.57;;;9.50;96.30;;;;;;4966933;28;20198;-78
2021/09/22 05:29:14;;;;;;;12.63;6.60;;;9.50;96.30;;;;;;4968566;28;20261;-78
2021/09/22 05:31:39;;;;;;;18.80;7.33;;;9.50;96.30;;;;;;4972572;28;20532;-79
2021/09/22 05:34:05;;;;;;;14.70;6.93;;;9.50;96.30;;;;;;4972034;28;20174;-79
2021/09/22 05:36:30;;;;;;;15.80;8.00;;;9.50;96.30;;;;;;4966407;28;20236;-78
2021/09/22 05:38:56;;;;;;;14.03;7.00;;;9.60;96.30;;;;;;4973298;28;20548;-78
2021/09/22 05:41:21;;;;;;;17.37;6.30;;;9.60;96.30;;;;;;4972292;28;20194;-78
2021/09/22 05:43:47;;;;;;;18.73;7.00;;;9.60;96.30;;;;;;4973138;28;20229;-78
2021/09/22 05:46:12;;;;;;;21.37;7.57;;;9.60;96.30;;;;;;4987891;28;20178;-77
2021/09/22 05:48:38;;;;;;;18.20;6.80;;;9.60;96.30;;;;;;4973027;28;20186;-78
2021/09/22 05:51:05;;;;;;;16.97;6.57;;;9.60;96.30;;;;;;4963442;28;20203;-79
2021/09/22 05:53:30;;;;;;;17.27;8.23;;;9.60;96.30;;;;;;4970219;28;20178;-79
2021/09/22 05:55:56;;;;;;;19.50;7.50;;;9.70;96.30;;;;;;4972454;28;20451;-79
2021/09/22 05:58:21;;;;;;;17.07;7.13;;;9.70;96.30;;;;;;4968005;28;20187;-81
2021/09/22 06:00:47;;;;;;;19.97;7.13;;;9.70;96.30;;;;;;4954663;28;20195;-80
2021/09/22 06:03:13;;;;;;;16.07;6.47;;;9.70;96.30;;;;;;4953238;29;20570;-80
2021/09/22 06:05:39;;;;;;;25.47;8.80;;;9.70;96.30;;;;;;4954708;28;20426;-79
2021/09/22 06:08:06;;;;;;;30.33;7.17;;;9.80;96.30;;;;;;4958984;28;20179;-78
2021/09/22 06:10:32;;;;;;;24.80;7.70;;;9.80;96.30;;;;;;4953488;29;20290;-77
2021/09/22 06:12:57;;;;;;;20.77;6.60;;;9.80;96.30;;;;;;4953342;28;20474;-77
2021/09/22 06:15:24;;;;;;;22.00;7.20;;;9.90;96.30;;;;;;4959724;28;20446;-79
2021/09/22 06:17:50;;;;;;;16.80;6.23;;;9.90;96.30;;;;;;4962594;28;20185;-77
2021/09/22 06:20:15;;;;;;;22.60;7.07;;;9.90;96.30;;;;;;4977234;28;20421;-78
2021/09/22 06:22:41;;;;;;;18.83;7.47;;;9.90;96.30;;;;;;4987090;28;20657;-77
2021/09/22 06:25:07;;;;;;;17.40;6.17;;;9.90;96.30;;;;;;4990994;28;20285;-78
2021/09/22 06:27:33;;;;;;;15.43;6.50;;;9.90;96.30;;;;;;4981841;28;20190;-78
2021/09/22 06:29:58;;;;;;;15.40;6.43;;;9.80;96.30;;;;;;4988826;28;20408;-79
2021/09/22 06:32:24;;;;;;;14.10;5.93;;;9.80;96.30;;;;;;4984314;28;20194;-78
2021/09/22 06:34:49;;;;;;;21.03;7.10;;;9.80;96.30;;;;;;4994315;28;20708;-78
2021/09/22 06:37:15;;;;;;;19.90;6.20;;;9.90;96.30;;;;;;4994151;28;20182;-78
2021/09/22 06:39:40;;;;;;;18.83;6.40;;;9.90;96.30;;;;;;4995493;28;20177;-77
2021/09/22 06:42:06;;;;;;;21.23;6.60;;;10.00;96.30;;;;;;4994800;28;20280;-77
2021/09/22 06:44:32;;;;;;;16.50;6.10;;;10.00;96.30;;;;;;4993971;28;20413;-78
2021/09/22 06:46:58;;;;;;;16.23;5.73;;;10.00;96.30;;;;;;4994044;28;20169;-78
2021/09/22 06:49:23;;;;;;;20.23;5.90;;;10.00;96.30;;;;;;4995235;28;20424;-78
2021/09/22 06:51:49;;;;;;;13.73;5.67;;;10.00;96.30;;;;;;4993315;28;20692;-77
2021/09/22 06:54:14;;;;;;;17.87;6.27;;;10.00;96.30;;;;;;4993898;28;20181;-77
2021/09/22 06:56:40;;;;;;;18.50;6.40;;;10.10;96.30;;;;;;4995128;28;20244;-78
2021/09/22 06:59:05;;;;;;;15.40;5.43;;;10.00;96.30;;;;;;4995104;28;20192;-77
2021/09/22 07:01:31;;;;;;;17.80;6.47;;;10.10;96.30;;;;;;4994149;28;20194;-77
2021/09/22 07:03:57;;;;;;;19.20;6.30;;;10.10;96.30;;;;;;4994988;28;20288;-77
2021/09/22 07:06:23;;;;;;;21.40;6.53;;;10.20;96.30;;;;;;4995223;28;20216;-77
2021/09/22 07:08:49;;;;;;;17.37;5.53;;;10.20;96.30;;;;;;4994982;28;20412;-76
2021/09/22 07:11:14;;;;;;;23.43;5.70;;;10.20;96.30;;;;;;4992944;28;20445;-77
2021/09/22 07:13:40;;;;;;;21.40;5.77;;;10.20;96.30;;;;;;4994763;28;20236;-79
2021/09/22 07:16:06;;;;;;;18.53;5.90;;;10.30;96.30;;;;;;4994739;28;20252;-77
2021/09/22 07:18:32;;;;;;;28.70;6.17;;;10.50;96.30;;;;;;4993545;28;20232;-77
2021/09/22 07:21:00;;;;;;;20.70;6.47;;;10.50;96.30;;;;;;4980311;28;20454;-78
2021/09/22 07:23:26;;;;;;;22.13;6.20;;;10.60;96.30;;;;;;4965232;28;20198;-77
2021/09/22 07:25:51;;;;;;;18.73;5.37;;;10.60;96.30;;;;;;4972327;28;20417;-77
2021/09/22 07:28:17;;;;;;;26.40;5.60;;;10.70;96.30;;;;;;4968095;28;20194;-77
2021/09/22 07:30:42;;;;;;;24.60;7.10;;;10.80;96.30;;;;;;4974081;28;20194;-78
2021/09/22 07:33:09;;;;;;;20.03;5.53;;;11.00;96.30;;;;;;4974318;28;20556;-78
2021/09/22 07:35:34;;;;;;;18.60;5.27;;;11.10;96.30;;;;;;4973681;28;20174;-77
2021/09/22 07:38:01;;;;;;;19.30;5.87;;;11.60;96.30;;;;;;4960690;28;20423;-77
2021/09/22 07:40:27;;;;;;;15.20;4.33;;;11.70;96.30;;;;;;4954149;29;20198;-78
2021/09/22 07:42:53;;;;;;;16.10;4.80;;;11.80;96.30;;;;;;4956551;28;20520;-77
2021/09/22 07:45:19;;;;;;;16.37;4.63;;;11.80;96.30;;;;;;4974346;28;20953;-77
2021/09/22 07:47:44;;;;;;;19.43;4.20;;;12.00;96.30;;;;;;4973595;28;20182;-76
2021/09/22 07:50:10;;;;;;;18.90;4.17;;;12.00;96.30;;;;;;4974724;28;20202;-77
2021/09/22 07:52:37;;;;;;;16.67;3.90;;;11.70;96.30;;;;;;4972631;28;20181;-77
2021/09/22 07:55:06;;;;;;;14.33;3.87;;;11.60;96.30;;;;;;4974584;28;20420;-77
2021/09/22 07:57:31;;;;;;;13.13;3.80;;;11.40;96.30;;;;;;4974458;28;20426;-78
2021/09/22 07:59:57;;;;;;;18.60;5.13;;;11.30;96.30;;;;;;4975497;28;20418;-79
2021/09/22 08:02:23;;;;;;;17.83;4.20;;;11.40;96.30;;;;;;4973998;28;20198;-79
2021/09/22 08:04:48;;;;;;;11.57;4.30;;;11.40;96.30;;;;;;4975609;28;20258;-79
2021/09/22 08:07:15;;;;;;;17.00;4.07;;;11.60;96.30;;;;;;4974812;28;20249;-77
2021/09/22 08:09:40;;;;;;;21.50;4.90;;;11.70;96.30;;;;;;4973019;28;20181;-77
2021/09/22 08:12:06;;;;;;;13.57;4.60;;;11.80;96.30;;;;;;4973603;28;20429;-77
2021/09/22 08:14:34;;;;;;;20.87;3.83;;;11.70;96.30;;;;;;4974175;28;20167;-77
2021/09/22 08:17:00;;;;;;;14.43;4.40;;;11.70;96.30;;;;;;4974132;28;20178;-77
2021/09/22 08:19:26;;;;;;;16.33;4.80;;;11.70;96.30;;;;;;4974208;28;20897;-77
2021/09/22 08:21:52;;;;;;;20.70;5.10;;;11.70;96.30;;;;;;4973387;28;20441;-77
2021/09/22 08:24:18;;;;;;;14.77;4.20;;;11.80;96.30;;;;;;4966217;28;20202;-77
2021/09/22 08:26:43;;;;;;;26.40;5.00;;;11.80;96.30;;;;;;4954042;28;20197;-77
2021/09/22 08:29:09;;;;;;;14.07;4.00;;;12.00;96.30;;;;;;4954549;28;20446;-78
2021/09/22 08:31:35;;;;;;;20.23;3.50;;;12.10;96.30;;;;;;4954198;28;20242;-78
2021/09/22 08:34:00;;;;;;;18.63;4.27;;;12.00;96.30;;;;;;4954796;28;20182;-77
2021/09/22 08:36:26;;;;;;;15.43;4.07;;;11.80;96.30;;;;;;4972576;28;20182;-77
2021/09/22 08:38:52;;;;;;;15.00;4.50;;;11.80;96.30;;;;;;4973940;28;20634;-77
2021/09/22 08:41:17;;;;;;;17.43;4.20;;;11.90;96.30;;;;;;4973043;28;20253;-77
2021/09/22 08:43:43;;;;;;;16.10;3.70;;;12.10;96.30;;;;;;4973477;28;20453;-78
2021/09/22 08:46:09;;;;;;;15.70;4.10;;;12.30;96.30;;;;;;4973824;28;20187;-77
2021/09/22 08:48:35;;;;;;;9.97;3.40;;;12.20;96.30;;;;;;4973622;28;20197;-77
2021/09/22 08:51:00;;;;;;;10.07;3.70;;;12.20;96.30;;;;;;4973096;28;20433;-78
2021/09/22 08:53:26;;;;;;;14.30;4.23;;;12.70;96.30;;;;;;4973643;28;20209;-78
2021/09/22 08:55:52;;;;;;;15.27;3.43;;;13.60;96.30;;;;;;4973545;28;20658;-79
2021/09/22 08:58:17;;;;;;;12.77;4.30;;;14.30;96.30;;;;;;4973526;28;20217;-78
2021/09/22 09:00:44;;;;;;;13.27;3.73;;;14.60;96.30;;;;;;4973440;28;20562;-77
2021/09/22 09:03:29;;;;;;;16.60;4.13;;;14.20;96.30;;;;;;4972939;28;20175;-80
2021/09/22 09:06:34;;;;;;;31.23;4.10;;;14.00;96.30;;;;;;4972334;28;20421;-78
2021/09/22 09:09:01;;;;;;;15.73;3.90;;;13.70;96.30;;;;;;4973140;28;20417;-77
2021/09/22 09:11:38;;;;;;;12.10;3.93;;;13.70;96.30;;;;;;4964330;28;20435;-79
2021/09/22 09:14:10;;;;;;;13.40;3.20;;;13.50;96.30;;;;;;4954027;28;20535;-79
2021/09/22 09:16:38;;;;;;;15.30;4.10;;;13.20;96.30;;;;;;4954181;28;20422;-79
2021/09/22 09:19:22;;;;;;;17.90;3.60;;;12.80;96.30;;;;;;4953820;28;20442;-78
2021/09/22 09:22:03;;;;;;;13.50;3.80;;;12.60;96.30;;;;;;4952239;28;21057;-78
2021/09/22 09:24:36;;;;;;;13.20;3.27;;;12.60;96.30;;;;;;4952642;28;20454;-78
2021/09/22 09:27:22;;;;;;;14.00;3.50;;;12.90;96.30;;;;;;4952829;28;20946;-78
2021/09/22 09:29:54;;;;;;;9.50;3.50;;;13.10;96.30;;;;;;4973003;28;20430;-78
2021/09/22 09:32:23;;;;;;;12.63;3.20;;;13.20;96.30;;;;;;4987647;28;20441;-77
2021/09/22 09:35:08;;;;;;;18.60;4.60;;;13.20;96.30;;;;;;4964222;28;20418;-80
2021/09/22 09:37:34;;;;;;;14.73;3.40;;;13.20;96.30;;;;;;4960727;28;20415;-81
2021/09/22 09:40:14;;;;;;;13.70;3.30;;;13.10;96.30;;;;;;4965490;28;20986;-80
2021/09/22 09:42:41;;;;;;;11.07;3.20;;;13.60;96.30;;;;;;4972573;28;20402;-79
2021/09/22 09:45:06;;;;;;;14.97;4.23;;;14.10;96.30;;;;;;4973085;28;20457;-80
2021/09/22 09:47:32;;;;;;;12.20;3.00;;;14.80;96.30;;;;;;4974198;28;20429;-82
2021/09/22 09:50:19;;;;;;;11.50;3.10;;;14.80;96.30;;;;;;4974030;28;20652;-82
2021/09/22 09:52:52;;;;;;;11.23;2.80;;;14.30;96.30;;;;;;4974730;28;20688;-81
2021/09/22 09:55:19;;;;;;;10.00;2.80;;;14.30;96.30;;;;;;4974845;28;20929;-80
2021/09/22 09:57:48;;;;;;;9.17;2.60;;;14.90;96.30;;;;;;4976457;28;20413;-80
2021/09/22 10:00:21;;;;;;;14.87;3.03;;;15.50;96.30;;;;;;4957206;28;20953;-79
2021/09/22 10:02:47;;;;;;;12.67;3.20;;;15.50;96.30;;;;;;4971920;28;20520;-80
2021/09/22 10:05:12;;;;;;;8.40;3.00;;;16.10;96.30;;;;;;4976116;28;20597;-80
2021/09/22 10:07:39;;;;;;;11.83;3.03;;;16.00;96.30;;;;;;4991325;28;20519;-80
2021/09/22 10:10:07;;;;;;;10.77;2.57;;;15.70;96.30;;;;;;4975819;28;20181;-80
2021/09/22 10:12:33;;;;;;;11.80;3.13;;;15.60;96.30;;;;;;4975727;28;20448;-80
2021/09/22 10:15:00;;;;;;;10.83;2.67;;;15.20;96.30;;;;;;4990843;28;20933;-80
2021/09/22 10:17:30;;;;;;;10.00;2.83;;;14.80;96.30;;;;;;4976112;28;20423;-79
2021/09/22 10:19:58;;;;;;;19.60;3.47;;;14.20;96.30;;;;;;4976121;28;20421;-80
2021/09/22 10:22:23;;;;;;;11.20;3.17;;;14.20;96.30;;;;;;4975482;28;20516;-79
2021/09/22 10:24:49;;;;;;;18.00;3.10;;;14.10;96.30;;;;;;4990679;28;20536;-80
2021/09/22 10:27:16;;;;;;;10.30;2.70;;;14.20;96.30;;;;;;4975781;28;20210;-79
2021/09/22 10:30:02;;;;;;;13.83;3.60;;;14.50;96.30;;;;;;4990735;28;20426;-79
2021/09/22 10:32:48;;;;;;;14.13;3.40;;;14.80;96.30;;;;;;4974876;28;20433;-80
2021/09/22 10:35:26;;;;;;;17.57;3.70;;;14.50;96.30;;;;;;4981603;28;20449;-81
2021/09/22 10:37:57;;;;;;;13.10;3.47;;;14.60;96.30;;;;;;4963704;28;20412;-79
2021/09/22 10:40:35;;;;;;;13.57;3.37;;;14.40;96.30;;;;;;4963564;28;20418;-79
2021/09/22 10:43:15;;;;;;;14.00;3.37;;;14.10;96.30;;;;;;4966618;28;20414;-79
2021/09/22 10:45:42;;;;;;;15.63;3.30;;;13.80;96.30;;;;;;4972957;28;20508;-80
2021/09/22 10:48:19;;;;;;;9.73;2.30;;;13.60;96.30;;;;;;4975681;28;20420;-80
2021/09/22 10:50:46;;;;;;;9.80;3.43;;;13.40;96.30;;;;;;4974490;28;20477;-79
2021/09/22 10:53:31;;;;;;;11.60;3.20;;;13.50;96.30;;;;;;4984845;28;20428;-81
2021/09/22 10:56:01;;;;;;;8.30;2.73;;;14.20;96.30;;;;;;4978085;28;20438;-79
2021/09/22 10:58:32;;;;;;;14.53;3.67;;;14.90;96.30;;;;;;4973654;28;20476;-80
2021/09/22 11:00:58;;;;;;;10.80;2.80;;;15.50;96.30;;;;;;4956713;28;20434;-80
2021/09/22 11:03:45;;;;;;;7.60;2.87;;;15.70;96.30;;;;;;4959567;28;20426;-81
2021/09/22 11:06:42;;;;;;;11.83;2.60;;;15.40;96.30;;;;;;4953955;28;20267;-79
2021/09/22 11:09:10;;;;;;;23.30;4.23;;;15.20;96.30;;;;;;4971168;28;20441;-79
2021/09/22 11:11:57;;;;;;;12.73;2.90;;;15.00;96.30;;;;;;4973463;28;20441;-79
2021/09/22 11:14:43;;;;;;;11.70;3.87;;;14.80;96.30;;;;;;4975069;28;20412;-80
2021/09/22 11:17:15;;;;;;;10.03;2.57;;;14.70;96.30;;;;;;4970701;28;20431;-79
2021/09/22 11:19:44;;;;;;;17.07;3.50;;;14.60;96.30;;;;;;4955860;28;20411;-79
2021/09/22 11:22:21;;;;;;;12.60;3.43;;;14.60;96.30;;;;;;4973494;28;20825;-79
2021/09/22 11:24:48;;;;;;;11.37;2.73;;;14.20;96.30;;;;;;4990341;28;20909;-79
2021/09/22 11:27:18;;;;;;;11.80;3.53;;;13.80;96.30;;;;;;4975123;28;20428;-79
2021/09/22 11:29:47;;;;;;;12.63;3.23;;;13.80;96.30;;;;;;4988628;28;20422;-79
2021/09/22 11:32:32;;;;;;;17.40;2.77;;;14.00;96.30;;;;;;4953677;28;20466;-79
2021/09/22 11:34:59;;;;;;;18.67;3.47;;;14.10;96.30;;;;;;4974782;28;21139;-79
2021/09/22 11:37:37;;;;;;;12.77;3.23;;;14.30;96.30;;;;;;4977156;28;20890;-81
2021/09/22 11:40:13;;;;;;;10.43;3.00;;;14.50;96.30;;;;;;4978747;28;20421;-79
2021/09/22 11:43:05;;;;;;;10.10;2.80;;;14.30;96.30;;;;;;4975585;28;20949;-79
2021/09/22 11:45:37;;;;;;;13.70;2.67;;;14.80;96.30;;;;;;4974842;28;20461;-80
2021/09/22 11:48:04;;;;;;;22.93;3.70;;;15.30;96.30;;;;;;4975023;28;20428;-80
2021/09/22 11:50:38;;;;;;;8.87;3.00;;;15.90;96.30;;;;;;4973163;28;20456;-80
2021/09/22 11:53:11;;;;;;;9.37;3.20;;;16.10;96.30;;;;;;4976053;28;20437;-80
2021/09/22 11:55:38;;;;;;;14.17;2.57;;;16.00;96.30;;;;;;4968579;28;20433;-79
2021/09/22 11:58:09;;;;;;;13.53;3.50;;;16.00;96.30;;;;;;4975916;28;21093;-79
2021/09/22 12:00:35;;;;;;;15.73;3.10;;;15.80;96.30;;;;;;4974835;28;20796;-81
2021/09/22 12:03:09;;;;;;;9.77;2.50;;;15.70;96.30;;;;;;4974192;28;20757;-80
2021/09/22 12:05:35;;;;;;;7.50;2.37;;;15.40;96.30;;;;;;4965740;28;20458;-80
2021/09/22 12:08:01;;;;;;;15.97;2.97;;;15.00;96.30;;;;;;4952310;28;20766;-80
2021/09/22 12:10:27;;;;;;;8.03;2.47;;;15.00;96.30;;;;;;4968471;28;20455;-81
2021/09/22 12:13:01;;;;;;;15.10;3.07;;;14.90;96.30;;;;;;4963778;28;20187;-80
2021/09/22 12:15:27;;;;;;;12.27;3.43;;;15.10;96.30;;;;;;4961450;28;20186;-80
2021/09/22 12:17:53;;;;;;;19.07;3.20;;;15.70;96.30;;;;;;4974720;28;20424;-80
2021/09/22 12:20:19;;;;;;;9.93;2.70;;;16.50;96.30;;;;;;4974461;28;20509;-80
2021/09/22 12:22:58;;;;;;;12.07;2.80;;;17.00;96.30;;;;;;4974555;28;20646;-80
2021/09/22 12:25:24;;;;;;;12.20;3.20;;;17.20;96.30;;;;;;4973645;28;20493;-80
2021/09/22 12:27:50;;;;;;;14.90;3.13;;;16.70;96.30;;;;;;4973449;28;20536;-80
2021/09/22 12:30:17;;;;;;;18.63;3.23;;;17.20;96.30;;;;;;4973781;28;20555;-81
2021/09/22 12:32:52;;;;;;;14.53;3.10;;;17.80;96.30;;;;;;4973514;28;20418;-80
2021/09/22 12:35:18;;;;;;;11.83;2.80;;;17.80;96.30;;;;;;4974897;28;20413;-80
2021/09/22 12:37:51;;;;;;;10.10;3.47;;;17.60;96.30;;;;;;4974642;28;20489;-80
2021/09/22 12:40:17;;;;;;;12.40;2.93;;;17.10;96.30;;;;;;4976900;28;20481;-81
2021/09/22 12:42:45;;;;;;;11.30;2.20;;;16.70;96.30;;;;;;4977859;28;20472;-82
2021/09/22 12:45:14;;;;;;;20.43;3.20;;;16.30;96.30;;;;;;4977688;28;20210;-81
2021/09/22 12:47:59;;;;;;;11.87;2.53;;;16.20;96.30;;;;;;4978399;28;20413;-82
2021/09/22 12:50:35;;;;;;;13.87;3.20;;;16.60;96.30;;;;;;4976754;28;20774;-81
2021/09/22 12:53:06;;;;;;;10.50;2.70;;;16.10;96.30;;;;;;4958513;28;20938;-82
2021/09/22 12:55:36;;;;;;;11.93;2.33;;;15.60;96.30;;;;;;5000538;28;20936;-81
2021/09/22 12:58:03;;;;;;;17.90;3.77;;;15.30;96.30;;;;;;4974186;28;20434;-82
2021/09/22 13:00:29;;;;;;;12.37;3.00;;;15.10;96.30;;;;;;4956142;28;20414;-80
2021/09/22 13:03:08;;;;;;;6.80;2.37;;;15.10;96.30;;;;;;4955021;29;20530;-78
2021/09/22 13:05:46;;;;;;;12.47;3.37;;;15.00;96.30;;;;;;4956916;28;20199;-78
2021/09/22 13:08:18;;;;;;;17.00;3.00;;;14.90;96.30;;;;;;4956234;28;20439;-82
2021/09/22 13:10:49;;;;;;;17.70;2.73;;;14.80;96.30;;;;;;4955251;28;20809;-82
2021/09/22 13:13:16;;;;;;;16.07;3.10;;;15.10;96.30;;;;;;4955398;29;20422;-81
2021/09/22 13:15:42;;;;;;;13.33;3.00;;;15.90;96.30;;;;;;4956750;28;20449;-81
2021/09/22 13:18:07;;;;;;;10.17;2.43;;;16.30;96.30;;;;;;4954558;28;20914;-80
2021/09/22 13:20:34;;;;;;;12.50;2.70;;;16.40;96.30;;;;;;4955442;28;20318;-80
2021/09/22 13:22:59;;;;;;;14.70;2.73;;;16.40;96.30;;;;;;4953566;28;20234;-80
2021/09/22 13:25:25;;;;;;;14.90;2.80;;;16.40;96.30;;;;;;4955142;28;20465;-80
2021/09/22 13:27:50;;;;;;;14.60;2.03;;;16.60;96.30;;;;;;4972012;28;20200;-80
2021/09/22 13:30:16;;;;;;;13.37;2.80;;;16.60;96.30;;;;;;4978366;28;20638;-79
2021/09/22 13:32:41;;;;;;;9.97;3.30;;;16.50;96.30;;;;;;4978045;28;20257;-81
2021/09/22 13:35:07;;;;;;;15.13;2.70;;;16.20;96.30;;;;;;4979361;28;20182;-81
2021/09/22 13:37:32;;;;;;;13.10;3.33;;;15.80;96.30;;;;;;4980104;28;20536;-80
2021/09/22 13:39:58;;;;;;;11.23;2.87;;;15.50;96.30;;;;;;4977257;28;20186;-80
2021/09/22 13:42:23;;;;;;;10.87;2.60;;;15.30;96.30;;;;;;4978894;28;20201;-81
2021/09/22 13:44:49;;;;;;;11.57;3.13;;;15.40;96.30;;;;;;4961593;28;20290;-81
2021/09/22 13:47:15;;;;;;;14.37;2.73;;;15.50;96.30;;;;;;4959984;28;20167;-80
2021/09/22 13:49:40;;;;;;;9.37;2.60;;;15.20;96.30;;;;;;4960459;28;20426;-80
2021/09/22 13:52:06;;;;;;;14.47;2.70;;;15.10;96.30;;;;;;4960820;28;20195;-81
2021/09/22 13:54:31;;;;;;;14.03;3.37;;;15.10;96.30;;;;;;4959347;28;20190;-80
2021/09/22 13:56:57;;;;;;;16.30;3.00;;;15.20;96.30;;;;;;4959917;28;20187;-79
2021/09/22 13:59:23;;;;;;;12.53;2.77;;;15.30;96.30;;;;;;4961529;28;20246;-79
2021/09/22 14:01:48;;;;;;;16.93;4.13;;;15.30;96.30;;;;;;4963648;29;20207;-80
2021/09/22 14:04:15;;;;;;;17.03;3.20;;;15.20;96.30;;;;;;4958523;28;20202;-80
2021/09/22 14:06:40;;;;;;;23.07;4.20;;;15.40;96.30;;;;;;4959512;28;20178;-81
2021/09/22 14:09:06;;;;;;;13.97;3.00;;;15.50;96.30;;;;;;4958953;29;20995;-80
2021/09/22 14:11:31;;;;;;;11.57;3.13;;;15.40;96.30;;;;;;4958062;28;20206;-80
2021/09/22 14:13:57;;;;;;;14.20;2.93;;;15.30;96.30;;;;;;4959026;28;20577;-80
2021/09/22 14:16:23;;;;;;;13.97;3.20;;;15.00;96.30;;;;;;4972539;28;20273;-80
2021/09/22 14:18:48;;;;;;;15.03;2.90;;;14.60;96.30;;;;;;4978037;28;20194;-80
2021/09/22 14:21:14;;;;;;;13.87;3.13;;;14.60;96.30;;;;;;4977766;28;20217;-81
2021/09/22 14:23:39;;;;;;;16.93;3.70;;;14.70;96.30;;;;;;4967910;28;20198;-80
2021/09/22 14:26:06;;;;;;;18.80;3.57;;;14.90;96.30;;;;;;4967871;28;20178;-81
2021/09/22 14:28:31;;;;;;;13.30;3.03;;;15.20;96.30;;;;;;4977998;28;20185;-82
2021/09/22 14:30:57;;;;;;;15.57;2.83;;;15.30;96.30;;;;;;4992444;28;20437;-80
2021/09/22 14:33:22;;;;;;;12.23;3.10;;;15.40;96.30;;;;;;4978077;28;20174;-80
2021/09/22 14:35:48;;;;;;;10.70;2.90;;;15.60;96.30;;;;;;4976384;28;20810;-80
2021/09/22 14:38:14;;;;;;;14.80;3.00;;;16.00;96.30;;;;;;4976603;28;20171;-81
2021/09/22 14:40:41;;;;;;;13.87;2.87;;;16.10;96.30;;;;;;4977836;28;20261;-81
2021/09/22 14:43:08;;;;;;;14.87;3.13;;;16.30;96.30;;;;;;4976451;28;20181;-81
2021/09/22 14:45:33;;;;;;;14.63;3.07;;;16.10;96.30;;;;;;4992831;28;20901;-81
2021/09/22 14:47:59;;;;;;;12.47;3.30;;;16.00;96.30;;;;;;4978332;28;20445;-81
2021/09/22 14:50:27;;;;;;;17.90;3.07;;;15.70;96.30;;;;;;4976617;28;20249;-79
2021/09/22 14:52:53;;;;;;;18.43;3.97;;;15.30;96.30;;;;;;4956775;28;20915;-79
2021/09/22 14:55:19;;;;;;;13.00;3.83;;;14.90;96.30;;;;;;4957195;28;20798;-79
2021/09/22 14:57:45;;;;;;;20.33;3.40;;;14.70;96.30;;;;;;4956983;28;20425;-79
2021/09/22 15:00:14;;;;;;;9.90;2.43;;;14.60;96.30;;;;;;4958481;28;20411;-79
2021/09/22 15:02:46;;;;;;;14.70;3.53;;;14.50;96.30;;;;;;4958347;28;20189;-79
2021/09/22 15:05:13;;;;;;;9.70;2.40;;;14.50;96.30;;;;;;4963368;28;20450;-79
2021/09/22 15:07:38;;;;;;;15.30;3.67;;;14.60;96.30;;;;;;4956477;28;21013;-80
2021/09/22 15:10:04;;;;;;;13.03;3.07;;;14.60;96.30;;;;;;4958123;28;20450;-80
2021/09/22 15:12:30;;;;;;;15.63;3.40;;;14.60;96.30;;;;;;4957138;28;20206;-79
2021/09/22 15:14:55;;;;;;;15.00;3.77;;;14.40;96.30;;;;;;4957149;28;20234;-80
2021/09/22 15:17:21;;;;;;;12.73;4.00;;;14.40;96.30;;;;;;4970795;28;20285;-80
2021/09/22 15:19:46;;;;;;;18.77;4.10;;;14.30;96.30;;;;;;4984828;28;20181;-79
2021/09/22 15:22:12;;;;;;;17.90;2.93;;;14.30;96.30;;;;;;4973645;28;20228;-80
2021/09/22 15:24:37;;;;;;;14.43;3.13;;;14.40;96.30;;;;;;4981752;28;20244;-79
2021/09/22 15:27:03;;;;;;;28.27;3.73;;;14.50;96.30;;;;;;4981501;28;20250;-80
2021/09/22 15:29:28;;;;;;;16.73;2.77;;;14.60;96.30;;;;;;4982233;28;20186;-80
2021/09/22 15:31:54;;;;;;;15.80;3.63;;;14.70;96.30;;;;;;4980619;28;20839;-81
2021/09/22 15:34:20;;;;;;;9.73;2.90;;;14.80;96.30;;;;;;4980734;28;20174;-79
2021/09/22 15:36:45;;;;;;;11.63;3.17;;;14.90;96.30;;;;;;4974736;28;20489;-77
2021/09/22 15:39:11;;;;;;;12.90;2.73;;;15.20;96.30;;;;;;4974636;28;20190;-78
2021/09/22 15:41:37;;;;;;;12.93;3.57;;;15.40;96.30;;;;;;4974277;28;20599;-78
2021/09/22 15:44:03;;;;;;;15.13;4.10;;;15.40;96.30;;;;;;4973528;28;20244;-78
2021/09/22 15:46:28;;;;;;;13.80;3.10;;;15.20;96.30;;;;;;4973592;28;20182;-77
2021/09/22 15:48:54;;;;;;;13.33;3.30;;;14.90;96.30;;;;;;4974949;28;20178;-78
2021/09/22 15:51:19;;;;;;;14.00;3.37;;;14.80;96.30;;;;;;4973240;28;20198;-79
2021/09/22 15:53:45;;;;;;;14.07;3.53;;;14.60;96.30;;;;;;4975044;28;20179;-78
2021/09/22 15:56:11;;;;;;;9.00;2.03;;;14.60;96.30;;;;;;4974607;28;20162;-77
2021/09/22 15:58:37;;;;;;;9.97;3.17;;;14.60;96.30;;;;;;4974980;28;20542;-77
2021/09/22 16:01:03;;;;;;;17.33;4.00;;;14.50;96.30;;;;;;4973439;28;20448;-78
2021/09/22 16:03:29;;;;;;;19.77;3.40;;;14.30;96.30;;;;;;4965998;28;20250;-77
2021/09/22 16:05:55;;;;;;;9.23;2.33;;;14.20;96.30;;;;;;4954247;28;20422;-78
2021/09/22 16:08:21;;;;;;;12.83;3.07;;;14.30;96.30;;;;;;4954940;28;20163;-79
2021/09/22 16:10:47;;;;;;;11.50;3.20;;;14.20;96.30;;;;;;4956676;28;20270;-79
2021/09/22 16:13:13;;;;;;;11.20;3.33;;;14.20;96.30;;;;;;4957611;28;20844;-78
2021/09/22 16:15:39;;;;;;;14.30;3.13;;;14.20;96.30;;;;;;4969918;28;20450;-78
2021/09/22 16:18:05;;;;;;;8.23;2.50;;;14.20;96.30;;;;;;4974091;28;20674;-79
2021/09/22 16:20:31;;;;;;;18.20;3.30;;;14.10;96.30;;;;;;4973756;28;20182;-80
2021/09/22 16:22:56;;;;;;;13.83;3.80;;;14.10;96.30;;;;;;4971571;28;20469;-81
2021/09/22 16:25:22;;;;;;;13.20;3.10;;;14.00;96.30;;;;;;4977892;28;20457;-81
2021/09/22 16:27:50;;;;;;;17.53;3.33;;;14.00;96.30;;;;;;4980665;28;20193;-81
2021/09/22 16:30:16;;;;;;;13.27;2.80;;;13.90;96.30;;;;;;4972275;28;20178;-81
2021/09/22 16:32:42;;;;;;;15.73;3.80;;;13.70;96.30;;;;;;4973489;28;20409;-80
2021/09/22 16:35:10;;;;;;;13.87;3.20;;;13.60;96.30;;;;;;4973688;28;20589;-80
2021/09/22 16:37:35;;;;;;;7.63;3.10;;;13.40;96.30;;;;;;4973413;28;20440;-82
2021/09/22 16:40:01;;;;;;;14.23;3.30;;;13.30;96.30;;;;;;4973562;28;20874;-81
2021/09/22 16:42:26;;;;;;;13.10;3.60;;;13.10;96.30;;;;;;4972692;28;20769;-81
2021/09/22 16:44:52;;;;;;;19.10;3.40;;;13.00;96.30;;;;;;4973616;28;20198;-81
2021/09/22 16:47:18;;;;;;;43.97;23.10;;;12.80;96.30;;;;;;4973877;28;20237;-81
2021/09/22 16:49:45;;;;;;;39.37;21.03;;;12.60;96.30;;;;;;4974942;28;20260;-80
2021/09/22 16:52:11;;;;;;;21.50;8.23;;;12.40;96.30;;;;;;4973706;28;20186;-80